Airfield :
LOGIN :

Register | Disclaimer

   EN    FR    IT 

 










Legend :    VFR   Marginal VFR   IFR   Intensive IFR   Very Intensive IFR
Visi :
Ceiling :
>= 8 km
>= 3000ft
5 to 8 km
1000 to 3000 ft
1500m to 5 km
500 to 1000 ft
800 to 1500m
200 to 500 ft
< 800m
< 200 ft
Symbols :   Thunderstorms  Fog  Heavy snow  Heavy precipitations  Wind > 20 kt
SIGMETs :     Misc.  Thunderstorms  Icing  Turbulence  Mountain Waves  Volcanic Ashes






- Airport Elevation : 1084 ft
- IATA code : EPL


LFSG - Épinal-Mirecourt

CURRENT METAR :
  • 240000Z AUTO 28014G24KT 9999 SCT014 SCT022 BKN027 02/M01 Q0996

EXPIRED METARs :
  • 232330Z AUTO 27016KT 9999 BKN014 BKN020 OVC043 01/00 Q0996
  • 232300Z AUTO 27017KT 9999 -DZ BKN013 BKN020 OVC037 01/M00 Q0995
  • 232230Z AUTO 27018KT 9999 BKN013 OVC019 02/00 Q0995
  • 232200Z AUTO 25014KT 9999 -RA FEW010 BKN014 BKN021 03/01 Q0994
  • 232130Z AUTO 24013KT 9999 -RA BKN015 BKN020 BKN026 03/01 Q0994

TAF N/A



MET'MAP, your aeronautical weather chart ! - Copyright ORBIFLY December 2007 - Disclaimer

ORBIFLY MET'MAP TEAM :

Programming & Development : Alexandra Zaïnal
Concept & original design : Baudouin d'Aumeries
Assistance for programming : Marc-Olivier Méhu
Technical & hardware support : Manuel Goepfert

Contact : metmap@orbifly.com




SOURCES & CREDITS :

   NOAA